Thunder radar more information blitzortung!


Radar de pluja more information rain snow radar


Visita la nostra xarxa de llocs de meteo:

Template documentation
and downloads

And another site



No particular awareness of the weather is required.    There are no Weather-warnings

Pagina Historial Weather Underground text

Diari Resum Juny 26, 2017 Unitats:  Imperial    Mètric   Tant
« Previous Dia
SegĂźent Dia »
Diari Setmana Mensual Anual Personalitzada
  Maxima: Minima: Media:
Temperatura: TemperatureC °F 20.4 °F 28.3 °F
Punt de rosada: DewpointC °F 9.6 °F 13.8 °F
Humitat: Humidity % 25 % 44 %
Wind Speed: WindSpeedKMH mph 0.0 mph 7.2 mph
RĂ fegues de vent: WindSpeedGustKMH mph - -
Vent:- - South
Pression baro: PressurehPa in 1006.0 in -
Precipitacions: 0.0 in    
Historical Graphs
 
 
Dades de taula per Juny 26, 2017
Temps Temperatura Punt de rosada Pression baro Vent Wind Speed RĂ fegues de vent Humitat Rainfall Rate (Hourly)
TemperatureC °F DewpointC °F PressurehPa in Calm     Humidity % HourlyPrecipMM in
00:00 21.1 °F 18.7 °F 1011.7 in Calm   1.6 mph 86 % 0.0 in
00:01 23.2 °F 18.9 °F 1012.8 in ENE 3.7 mph 3.7 mph 77 % 0.0 in
00:10 21.1 °F 18.5 °F 1011.7 in SSW 3.2 mph 4.8 mph 85 % 0.0 in
00:20 20.9 °F 18.3 °F 1011.7 in SW 1.6 mph 3.2 mph 85 % 0.0 in
00:30 20.8 °F 18.2 °F 1011.7 in WSW 3.2 mph 4.8 mph 85 % 0.0 in
00:40 20.8 °F 18.2 °F 1012.8 in WSW 1.6 mph 3.2 mph 85 % 0.0 in
00:50 20.8 °F 18.2 °F 1012.8 in Calm     85 % 0.0 in
01:00 20.8 °F 18.2 °F 1011.7 in WSW 1.6 mph 3.2 mph 85 % 0.0 in
01:10 20.8 °F 18.2 °F 1011.7 in SW 1.6 mph 3.2 mph 85 % 0.0 in
01:20 20.8 °F 18.4 °F 1011.7 in SW 1.6 mph 3.2 mph 86 % 0.0 in
01:30 20.8 °F 18.2 °F 1011.7 in NE 1.6 mph 4.8 mph 85 % 0.0 in
01:40 20.7 °F 17.9 °F 1010.7 in Calm   1.6 mph 84 % 0.0 in
01:50 20.5 °F 17.7 °F 1010.7 in West 1.6 mph 4.8 mph 84 % 0.0 in
02:00 20.4 °F 17.4 °F 1011.7 in West 1.6 mph 4.8 mph 83 % 0.0 in
02:10 20.5 °F 17.5 °F 1010.0 in NE 11.3 mph 11.3 mph 83 % 0.0 in
02:20 20.7 °F 17.9 °F 1010.0 in NE 3.2 mph 14.5 mph 84 % 0.0 in
02:30 20.6 °F 17.8 °F 1009.0 in ENE 1.6 mph 6.4 mph 84 % 0.0 in
02:40 20.6 °F 17.8 °F 1010.0 in WNW 3.2 mph 3.2 mph 84 % 0.0 in
02:50 20.7 °F 17.7 °F 1010.0 in WSW 3.2 mph 4.8 mph 83 % 0.0 in
03:00 20.7 °F 17.7 °F 1010.0 in SW 1.6 mph 4.8 mph 83 % 0.0 in
03:10 20.6 °F 17.4 °F 1011.7 in SW 4.8 mph 6.4 mph 82 % 0.0 in
03:20 20.7 °F 17.3 °F 1011.7 in SSW 9.7 mph 9.7 mph 81 % 0.0 in
03:30 20.7 °F 17.3 °F 1011.7 in SW 3.2 mph 6.4 mph 81 % 0.0 in
03:40 20.7 °F 17.1 °F 1010.7 in Calm   6.4 mph 80 % 0.0 in
03:50 20.9 °F 17.1 °F 1010.7 in NE 1.6 mph 1.6 mph 79 % 0.0 in
04:00 21.2 °F 17.2 °F 1011.7 in NE 3.2 mph 6.4 mph 78 % 0.0 in
04:10 21.9 °F 17.9 °F 1010.7 in NNE 8.0 mph 9.7 mph 78 % 0.0 in
04:20 22.7 °F 18.4 °F 1010.7 in NE 8.0 mph 12.9 mph 77 % 0.0 in
04:30 23.4 °F 18.7 °F 1011.7 in NE 4.8 mph 8.0 mph 75 % 0.0 in
04:40 24.0 °F 18.8 °F 1009.0 in NE 4.8 mph 8.0 mph 73 % 0.0 in
04:50 24.2 °F 18.2 °F 1009.0 in NE 8.0 mph 12.9 mph 69 % 0.0 in
05:00 24.2 °F 17.7 °F 1010.0 in NE 9.7 mph 14.5 mph 67 % 0.0 in
05:10 24.9 °F 18.1 °F 1010.0 in NE 4.8 mph 8.0 mph 66 % 0.0 in
05:20 25.8 °F 17.7 °F 1010.0 in NE 4.8 mph 8.0 mph 61 % 0.0 in
05:30 26.5 °F 17.6 °F 1009.0 in NE 4.8 mph 8.0 mph 58 % 0.0 in
10:31 27.1 °F 17.0 °F 1008.0 in NE 6.4 mph 6.4 mph 54 % 0.0 in
10:36 27.6 °F 16.2 °F 1008.0 in NNE 13.0 mph 13.0 mph 50 % 0.0 in
10:41 27.5 °F 15.8 °F 1008.0 in NNW 16.9 mph 16.9 mph 49 % 0.0 in
10:46 27.6 °F 15.9 °F 1008.0 in NE 8.7 mph 8.7 mph 49 % 0.0 in
10:51 27.7 °F 16.3 °F 1008.0 in NE 9.7 mph 9.7 mph 50 % 0.0 in
10:56 28.2 °F 16.8 °F 1008.0 in NE 5.6 mph 5.6 mph 50 % 0.0 in
11:01 28.0 °F 16.3 °F 1008.0 in NNE 14.8 mph 14.8 mph 49 % 0.0 in
11:06 28.4 °F 16.7 °F 1008.0 in NNE 10.3 mph 10.3 mph 49 % 0.0 in
11:11 28.5 °F 16.7 °F 1008.0 in East 9.3 mph 9.3 mph 49 % 0.0 in
11:17 28.3 °F 16.2 °F 1007.0 in ENE 9.3 mph 9.3 mph 48 % 0.0 in
11:22 28.1 °F 16.1 °F 1007.0 in NNE 9.3 mph 9.3 mph 48 % 0.0 in
11:27 28.8 °F 16.7 °F 1008.0 in NNE 9.3 mph 9.3 mph 48 % 0.0 in
11:32 28.7 °F 16.6 °F 1008.0 in NNE 5.8 mph 5.8 mph 48 % 0.0 in
11:37 28.5 °F 16.4 °F 1008.0 in East 9.3 mph 9.3 mph 48 % 0.0 in
11:42 29.1 °F 16.6 °F 1008.0 in NNE 6.4 mph 6.4 mph 47 % 0.0 in
11:47 29.1 °F 16.3 °F 1008.0 in ENE 5.6 mph 5.6 mph 46 % 0.0 in
11:52 29.6 °F 17.1 °F 1008.0 in West 3.7 mph 3.7 mph 47 % 0.0 in
11:57 30.0 °F 17.4 °F 1008.0 in NW 3.9 mph 4.2 mph 47 % 0.0 in
12:02 30.3 °F 17.1 °F 1008.0 in SSE 5.6 mph 5.6 mph 45 % 0.0 in
12:07 30.6 °F 16.9 °F 1008.0 in ESE 7.4 mph 7.4 mph 44 % 0.0 in
12:12 30.4 °F 16.1 °F 1008.0 in SE 7.4 mph 7.4 mph 42 % 0.0 in
12:17 30.9 °F 15.3 °F 1008.0 in ESE 5.0 mph 5.0 mph 39 % 0.0 in
12:22 30.6 °F 15.8 °F 1008.0 in WSW 5.6 mph 5.6 mph 41 % 0.0 in
12:23 30.6 °F 15.8 °F 1008.0 in WSW 5.6 mph 5.6 mph 41 % 0.0 in
12:28 31.0 °F 15.8 °F 1008.0 in SSW 1.4 mph   40 % 0.0 in
12:33 31.0 °F 15.0 °F 1008.0 in ESE 5.6 mph 5.6 mph 38 % 0.0 in
12:38 31.1 °F 14.3 °F 1008.0 in South 5.6 mph 5.6 mph 36 % 0.0 in
12:43 32.1 °F 16.0 °F 1007.0 in East 2.6 mph   38 % 0.0 in
12:48 31.2 °F 14.8 °F 1007.0 in ENE 5.6 mph 5.6 mph 37 % 0.0 in
12:53 31.2 °F 15.2 °F 1007.0 in NNE 7.4 mph 7.4 mph 38 % 0.0 in
12:58 31.5 °F 15.1 °F 1008.0 in ESE 9.3 mph 9.3 mph 37 % 0.0 in
13:03 31.5 °F 14.6 °F 1008.0 in NE 11.1 mph 11.1 mph 36 % 0.0 in
13:08 31.3 °F 14.0 °F 1008.0 in SE 14.8 mph 14.8 mph 35 % 0.0 in
13:13 31.1 °F 12.4 °F 1008.0 in SSE 20.4 mph 20.4 mph 32 % 0.0 in
13:18 31.5 °F 12.8 °F 1008.0 in SE 9.3 mph 13.0 mph 32 % 0.0 in
13:23 31.5 °F 12.3 °F 1008.0 in ESE 19.0 mph 19.0 mph 31 % 0.0 in
13:28 32.1 °F 13.3 °F 1008.0 in SSW 11.1 mph 11.1 mph 32 % 0.0 in
13:33 32.3 °F 14.0 °F 1008.0 in SSE 13.0 mph 13.0 mph 33 % 0.0 in
13:38 32.0 °F 14.6 °F 1008.0 in East 14.8 mph 14.8 mph 35 % 0.0 in
13:43 31.3 °F 13.6 °F 1008.0 in ESE 27.8 mph 27.8 mph 34 % 0.0 in
13:48 31.7 °F 13.4 °F 1008.0 in SE 9.3 mph 9.3 mph 33 % 0.0 in
13:53 31.9 °F 13.2 °F 1008.0 in ESE 12.6 mph 12.6 mph 32 % 0.0 in
13:58 32.0 °F 13.2 °F 1008.0 in SW 11.1 mph 11.1 mph 32 % 0.0 in
14:03 32.4 °F 13.6 °F 1008.0 in SSE 16.7 mph 16.7 mph 32 % 0.0 in
14:08 31.7 °F 13.0 °F 1008.0 in ESE 16.7 mph 16.7 mph 32 % 0.0 in
14:13 31.3 °F 12.2 °F 1008.0 in ESE 18.5 mph 18.5 mph 31 % 0.0 in
14:18 31.8 °F 12.6 °F 1008.0 in East 13.0 mph 13.0 mph 31 % 0.0 in
14:23 31.5 °F 12.3 °F 1008.0 in NNE 15.6 mph 15.6 mph 31 % 0.0 in
14:28 31.9 °F 12.7 °F 1008.0 in SSE 14.8 mph 14.8 mph 31 % 0.0 in
14:33 32.2 °F 12.4 °F 1008.0 in South 9.5 mph 9.5 mph 30 % 0.0 in
14:38 32.9 °F 13.1 °F 1008.0 in South 7.4 mph 7.4 mph 30 % 0.0 in
14:43 32.6 °F 13.3 °F 1008.0 in SW 9.0 mph 9.0 mph 31 % 0.0 in
14:48 33.1 °F 12.7 °F 1008.0 in SE 9.3 mph 9.3 mph 29 % 0.0 in
14:53 32.8 °F 12.9 °F 1008.0 in South 9.3 mph 9.3 mph 30 % 0.0 in
14:58 32.9 °F 13.1 °F 1008.0 in South 7.4 mph 7.4 mph 30 % 0.0 in
15:03 33.7 °F 13.2 °F 1008.0 in SW 11.1 mph 11.1 mph 29 % 0.0 in
15:08 33.5 °F 13.0 °F 1008.0 in WSW 9.3 mph 9.3 mph 29 % 0.0 in
15:13 33.6 °F 13.1 °F 1008.0 in West 11.1 mph 11.1 mph 29 % 0.0 in
15:18 33.5 °F 13.0 °F 1008.0 in South 13.0 mph 13.0 mph 29 % 0.0 in
15:23 33.2 °F 12.8 °F 1008.0 in SSW 11.1 mph 11.1 mph 29 % 0.0 in
15:28 32.8 °F 11.9 °F 1008.0 in SW 12.2 mph 12.2 mph 28 % 0.0 in
15:33 32.5 °F 11.6 °F 1008.0 in SSE 9.3 mph 9.3 mph 28 % 0.0 in
15:38 32.9 °F 12.0 °F 1008.0 in SSW 13.0 mph 13.0 mph 28 % 0.0 in
15:43 32.9 °F 12.0 °F 1008.0 in SSE 16.7 mph 16.7 mph 28 % 0.0 in
15:48 32.8 °F 11.9 °F 1008.0 in SW 11.1 mph 11.1 mph 28 % 0.0 in
15:53 33.1 °F 12.2 °F 1008.0 in SW 7.4 mph 7.4 mph 28 % 0.0 in
15:58 33.4 °F 12.4 °F 1008.0 in WSW 9.3 mph 9.3 mph 28 % 0.0 in
16:03 33.2 °F 12.2 °F 1008.0 in South 5.6 mph 5.6 mph 28 % 0.0 in
16:08 33.3 °F 12.3 °F 1008.0 in WSW 7.4 mph 7.4 mph 28 % 0.0 in
16:13 33.4 °F 11.8 °F 1008.0 in South 8.7 mph 8.7 mph 27 % 0.0 in
16:18 33.9 °F 12.3 °F 1008.0 in SW 7.4 mph 7.4 mph 27 % 0.0 in
16:23 34.0 °F 12.4 °F 1008.0 in West 7.4 mph 7.4 mph 27 % 0.0 in
16:28 33.9 °F 12.3 °F 1007.0 in SW 14.8 mph 14.8 mph 27 % 0.0 in
16:33 34.1 °F 12.4 °F 1007.0 in SW 7.4 mph 7.4 mph 27 % 0.0 in
16:38 34.1 °F 12.4 °F 1007.0 in WSW 14.8 mph 14.8 mph 27 % 0.0 in
16:43 33.6 °F 12.0 °F 1007.0 in WSW 7.4 mph 7.4 mph 27 % 0.0 in
16:48 33.9 °F 11.7 °F 1007.0 in WSW 7.4 mph 7.4 mph 26 % 0.0 in
16:53 34.6 °F 12.9 °F 1007.0 in South 5.6 mph 5.6 mph 27 % 0.0 in
16:58 34.2 °F 11.9 °F 1007.0 in ESE 3.7 mph 3.7 mph 26 % 0.0 in
17:03 34.2 °F 11.9 °F 1007.0 in SSE 3.7 mph 3.7 mph 26 % 0.0 in
17:08 34.5 °F 12.2 °F 1007.0 in South 7.4 mph 7.4 mph 26 % 0.0 in
17:13 33.4 °F 11.3 °F 1007.0 in ESE 9.3 mph 9.3 mph 26 % 0.0 in
17:18 32.9 °F 10.8 °F 1007.0 in ENE 9.3 mph 9.3 mph 26 % 0.0 in
17:23 32.5 °F 10.5 °F 1007.0 in SW 16.7 mph 16.7 mph 26 % 0.0 in
17:28 32.6 °F 10.6 °F 1007.0 in SE 13.0 mph 13.0 mph 26 % 0.0 in
17:33 32.9 °F 10.8 °F 1007.0 in East 9.3 mph 9.3 mph 26 % 0.0 in
17:38 32.6 °F 10.0 °F 1007.0 in SSE 9.3 mph 9.3 mph 25 % 0.0 in
17:43 32.4 °F 10.4 °F 1007.0 in ESE 10.0 mph 10.0 mph 26 % 0.0 in
17:48 32.1 °F 9.6 °F 1007.0 in SE 9.7 mph 9.7 mph 25 % 0.0 in
17:53 32.4 °F 9.8 °F 1007.0 in SSW 9.3 mph 9.3 mph 25 % 0.0 in
17:58 32.8 °F 10.2 °F 1006.0 in SSW 7.4 mph 7.4 mph 25 % 0.0 in
18:03 32.4 °F 10.4 °F 1006.0 in East 9.3 mph 9.3 mph 26 % 0.0 in
18:08 32.1 °F 9.6 °F 1006.0 in ESE 6.9 mph 6.9 mph 25 % 0.0 in
18:13 32.3 °F 9.8 °F 1006.0 in East 7.4 mph 7.4 mph 25 % 0.0 in
18:18 32.2 °F 9.7 °F 1006.0 in East 9.3 mph 9.3 mph 25 % 0.0 in
18:23 32.5 °F 10.5 °F 1006.0 in SW 9.3 mph 9.3 mph 26 % 0.0 in
18:28 32.9 °F 10.8 °F 1006.0 in SSE 7.4 mph 7.4 mph 26 % 0.0 in
18:33 32.8 °F 10.8 °F 1006.0 in South 5.6 mph 5.6 mph 26 % 0.0 in
18:38 33.1 °F 10.4 °F 1006.0 in SW 7.4 mph 7.4 mph 25 % 0.0 in
18:43 32.7 °F 10.7 °F 1006.0 in SSW 5.6 mph 5.6 mph 26 % 0.0 in
18:48 32.7 °F 10.7 °F 1006.0 in SW 5.6 mph 5.6 mph 26 % 0.0 in
18:53 32.4 °F 10.4 °F 1006.0 in SW 9.5 mph 9.5 mph 26 % 0.0 in
18:58 32.2 °F 10.3 °F 1006.0 in WSW 9.3 mph 9.3 mph 26 % 0.0 in
19:03 31.8 °F 9.9 °F 1006.0 in SW 13.0 mph 13.0 mph 26 % 0.0 in
19:08 31.5 °F 10.2 °F 1006.0 in SSW 9.7 mph 9.7 mph 27 % 0.0 in
19:13 31.4 °F 10.2 °F 1006.0 in WSW 7.4 mph 7.4 mph 27 % 0.0 in
19:18 31.4 °F 10.2 °F 1006.0 in SW 9.5 mph 9.5 mph 27 % 0.0 in
19:23 31.4 °F 10.2 °F 1006.0 in SSW 7.4 mph 7.4 mph 27 % 0.0 in
19:28 31.1 °F 9.9 °F 1006.0 in WSW 9.3 mph 9.3 mph 27 % 0.0 in
19:33 31.1 °F 9.9 °F 1006.0 in WSW 15.8 mph 15.8 mph 27 % 0.0 in
19:38 31.0 °F 9.8 °F 1006.0 in WSW 7.4 mph 7.6 mph 27 % 0.0 in
19:43 30.8 °F 9.6 °F 1007.0 in SW 9.3 mph 9.3 mph 27 % 0.0 in
19:48 30.7 °F 10.1 °F 1007.0 in SSW 9.3 mph 9.3 mph 28 % 0.0 in
19:53 30.6 °F 10.0 °F 1007.0 in South 11.1 mph 11.1 mph 28 % 0.0 in
19:58 30.5 °F 9.9 °F 1006.0 in SW 5.6 mph 5.6 mph 28 % 0.0 in
20:03 30.3 °F 9.8 °F 1006.0 in SSW 10.0 mph 10.0 mph 28 % 0.0 in
20:08 30.1 °F 9.6 °F 1006.0 in SSW 7.4 mph 7.4 mph 28 % 0.0 in
20:13 29.9 °F 9.9 °F 1007.0 in WSW 9.3 mph 9.3 mph 29 % 0.0 in
20:18 29.7 °F 9.8 °F 1007.0 in SW 9.3 mph 9.5 mph 29 % 0.0 in
20:19 29.7 °F 10.3 °F 1007.0 in SSW 11.1 mph 11.1 mph 30 % 0.0 in
20:24 29.4 °F 10.0 °F 1007.0 in SSW 9.3 mph 9.3 mph 30 % 0.0 in
20:29 29.3 °F 10.4 °F 1007.0 in South 9.3 mph 9.3 mph 31 % 0.0 in
20:34 29.1 °F 10.2 °F 1007.0 in SSW 11.1 mph 11.1 mph 31 % 0.0 in
20:39 28.8 °F 10.9 °F 1007.0 in West 11.1 mph 11.1 mph 33 % 0.0 in
20:44 28.7 °F 11.3 °F 1007.0 in ESE 5.3 mph 5.3 mph 34 % 0.0 in
20:49 28.6 °F 11.6 °F 1007.0 in SW 1.9 mph   35 % 0.0 in
20:51 28.5 °F 11.6 °F 1007.0 in Calm     35 % 0.0 in
20:56 28.3 °F 11.4 °F 1007.0 in SW 7.4 mph 7.4 mph 35 % 0.0 in
21:01 28.2 °F 11.7 °F 1007.0 in WSW 6.1 mph 6.1 mph 36 % 0.0 in
21:05 28.0 °F 11.9 °F 1007.0 in SW 5.6 mph 5.6 mph 37 % 0.0 in
21:11 27.9 °F 12.3 °F 1007.0 in South 3.7 mph 3.7 mph 38 % 0.0 in
21:16 27.7 °F 12.1 °F 1007.0 in West 1.9 mph 1.9 mph 38 % 0.0 in
21:20 27.5 °F 12.3 °F 1007.0 in WSW 5.3 mph 5.3 mph 39 % 0.0 in
21:21 27.5 °F 12.3 °F 1007.0 in WSW 7.4 mph 7.4 mph 39 % 0.0 in
21:26 27.3 °F 12.5 °F 1007.0 in SW 5.0 mph 5.0 mph 40 % 0.0 in
21:31 27.1 °F 12.7 °F 1007.0 in SE 1.9 mph 1.9 mph 41 % 0.0 in
21:36 26.9 °F 13.3 °F 1007.0 in SW 1.9 mph 1.9 mph 43 % 0.0 in
21:41 26.8 °F 13.2 °F 1007.0 in WSW 2.3 mph   43 % 0.0 in
21:46 26.7 °F 13.1 °F 1008.0 in SW 7.4 mph 7.4 mph 43 % 0.0 in
21:51 26.5 °F 13.3 °F 1008.0 in SW 4.7 mph 4.7 mph 44 % 0.0 in
21:56 26.4 °F 13.2 °F 1008.0 in SW 1.9 mph 1.9 mph 44 % 0.0 in
22:01 26.3 °F 13.4 °F 1008.0 in WSW 1.9 mph 1.9 mph 45 % 0.0 in
22:06 26.1 °F 13.6 °F 1008.0 in Calm     46 % 0.0 in
22:11 26.0 °F 13.5 °F 1008.0 in Calm     46 % 0.0 in
22:16 25.9 °F 13.7 °F 1008.0 in South 7.4 mph 7.4 mph 47 % 0.0 in
22:21 25.8 °F 13.6 °F 1008.0 in SW 3.7 mph 3.7 mph 47 % 0.0 in
22:26 25.7 °F 13.6 °F 1008.0 in WSW 3.7 mph 3.7 mph 47 % 0.0 in
22:31 25.6 °F 13.8 °F 1008.0 in WSW 3.7 mph 3.7 mph 48 % 0.0 in
22:36 25.5 °F 13.7 °F 1008.0 in SW 2.3 mph 2.6 mph 48 % 0.0 in
22:41 25.5 °F 14.0 °F 1008.0 in WSW 3.9 mph 3.9 mph 49 % 0.0 in
22:46 25.4 °F 13.9 °F 1008.0 in SW 3.7 mph 3.7 mph 49 % 0.0 in
22:50 22.0 °F 16.1 °F 1008.0 in NE 4.8 mph 4.8 mph 69 % 0.0 in
22:51 25.3 °F 14.1 °F 1008.0 in West 3.7 mph 3.7 mph 50 % 0.0 in
22:56 25.3 °F 14.1 °F 1008.0 in WSW 3.7 mph 3.7 mph 50 % 0.0 in
23:00 21.9 °F 16.2 °F 1008.0 in NE 3.2 mph 3.2 mph 70 % 0.0 in
23:01 25.2 °F 14.1 °F 1008.0 in WNW 5.6 mph 5.6 mph 50 % 0.0 in
23:06 25.1 °F 14.3 °F 1008.0 in WSW 4.7 mph 4.7 mph 51 % 0.0 in
23:10 21.8 °F 16.1 °F 1008.0 in Calm   3.2 mph 70 % 0.0 in
23:11 25.0 °F 14.4 °F 1008.0 in WNW 3.7 mph 3.7 mph 52 % 0.0 in
23:16 25.0 °F 14.4 °F 1008.0 in West 3.7 mph 3.7 mph 52 % 0.0 in
23:20 21.7 °F 16.0 °F 1007.0 in Calm   3.2 mph 70 % 0.0 in
23:21 24.9 °F 14.9 °F 1008.0 in WSW 5.6 mph 5.6 mph 54 % 0.0 in
23:26 24.8 °F 14.8 °F 1008.0 in West 3.7 mph 3.7 mph 54 % 0.0 in
23:30 21.6 °F 16.1 °F 1007.0 in Calm   1.6 mph 71 % 0.0 in
23:31 24.8 °F 15.2 °F 1008.0 in WSW 3.9 mph 3.9 mph 55 % 0.0 in
23:36 24.7 °F 15.1 °F 1008.0 in WNW 3.7 mph 3.7 mph 55 % 0.0 in
23:40 21.4 °F 15.9 °F 1008.0 in NE 1.6 mph 3.2 mph 71 % 0.0 in
23:41 24.6 °F 14.9 °F 1008.0 in WSW 5.6 mph 5.6 mph 55 % 0.0 in
23:46 24.6 °F 15.2 °F 1008.0 in West 3.7 mph 3.9 mph 56 % 0.0 in
23:50 21.3 °F 15.8 °F 1008.0 in Calm   1.6 mph 71 % 0.0 in
23:51 24.5 °F 15.2 °F 1008.0 in West 3.7 mph 3.7 mph 56 % 0.0 in
23:56 24.5 °F 15.2 °F 1008.0 in WSW 5.6 mph 5.6 mph 56 % 0.0 in
Meteo Sesrovires
Elogis d' Weather Underground - 1.5 mb

Guio original per  Jim McMurry - jmcmurry@mwt.net Adaptat per a la plantilla per  Wim van der Kuil - Leuven-Template.eu

Trobareu la nostra informacio del temps tambe a:

Weather Underground

AWEKAS